Ogilvie, Minnesota
Current Conditions -  °F | °C
As of 4:20 PM on Sunday 23 Nov 2014 (Local Time) from KJMR Reporting Station
Drizzle Drizzle  
Wind Chill: 34°   Ceiling: 600
Heat Index: 34°   Visibility: 2.5mi
Dew Point: 34°   Wind: 3mph
Humidity: 100%   Direction: 300°WNW
Pressure: 29.39"   Gusts: NA
Location:  45.83°N, 93.43°W
Report Text: KJMR 232220Z AUTO 30003KT 2 1/2SM DZ OVC006 01/01 A2939 RMK AO2
Loading
Personal Weather Stations






























Interactive Weather Map New forecast layout! Learn more

10-Day Weather Forecast

Advertisements
Track Severe Weather on mobile